Farnham, Ohio
Current Conditions -  °F | °C
As of 10:53 PM on Sunday 25 Jan 2015 (Local Time) from KHZY Reporting Station
Overcast Overcast  
Wind Chill:   Ceiling: 9000
Heat Index: 18°   Visibility: 10mi
Dew Point:   Wind: 9mph
Humidity: 62%   Direction: 60°ENE
Pressure: 29.9"   Gusts: NA
Location:  41.8949°N, 80.5816°W
Report Text: KHZY 260353Z AUTO 06008KT 10SM SCT065 OVC090 M08/M14 A2990 RMK AO2 SLP138 T10781139
Loading
Personal Weather Stations






























Interactive Weather Map New forecast layout! Learn more

10-Day Weather Forecast

Advertisements
Track Severe Weather on mobile